createdAt,value
2017-12-27T00:00:38.676Z,986.9
2017-12-27T00:10:53.657Z,986.6
2017-12-27T00:21:08.686Z,986.3
2017-12-27T00:31:23.900Z,986
2017-12-27T00:41:39.276Z,985.8
2017-12-27T00:51:54.793Z,985.4
2017-12-27T01:02:09.991Z,985.3
2017-12-27T01:12:24.694Z,985.2
2017-12-27T01:22:39.442Z,985
2017-12-27T01:32:54.984Z,984.7
2017-12-27T01:43:10.364Z,984.5
2017-12-27T01:53:24.579Z,984.3
2017-12-27T02:03:40.106Z,984
2017-12-27T02:13:53.960Z,983.6
2017-12-27T02:24:07.725Z,983.3
2017-12-27T02:34:21.434Z,983.2
2017-12-27T02:44:35.146Z,982.9
2017-12-27T02:54:50.203Z,982.7
2017-12-27T03:05:04.244Z,982.5
2017-12-27T03:15:19.216Z,982.2
2017-12-27T03:25:32.927Z,982.1
2017-12-27T03:35:47.506Z,981.7
2017-12-27T03:46:02.595Z,981.5
2017-12-27T03:56:17.272Z,981.3
2017-12-27T04:06:31.978Z,981
2017-12-27T04:16:47.127Z,980.8
2017-12-27T04:27:01.477Z,980.5
2017-12-27T04:37:16.898Z,980.2
2017-12-27T04:47:32.240Z,979.9
2017-12-27T04:57:46.965Z,979.6
2017-12-27T05:08:01.328Z,979.6
2017-12-27T05:18:16.198Z,979.3
2017-12-27T05:28:30.474Z,979.2
2017-12-27T05:38:44.914Z,979.1
2017-12-27T05:48:59.375Z,978.8
2017-12-27T05:59:14.184Z,978.7
2017-12-27T06:09:28.325Z,978.6
2017-12-27T06:19:42.050Z,978.5
2017-12-27T06:29:57.435Z,978.4
2017-12-27T06:40:12.288Z,978.5
2017-12-27T06:50:26.124Z,978.2
2017-12-27T07:00:40.538Z,977.9
2017-12-27T07:10:54.694Z,977.9
2017-12-27T07:21:08.672Z,977.8
2017-12-27T07:31:23.121Z,977.8
2017-12-27T07:41:37.106Z,977.7
